CGJBF CYZV-CYYR

Flight info

Callsign CGJBF
Flight time 1h 1m
Altitude 27000
Route ALKOB DCT TASTI
Aircraft TBM8/L-SDFGRWY/S

Departure

Time 2026-05-03 22:33
Airport Sept-Îles Airport (CYZV)

Arrival

Time 2026-05-03 23:35
Airport Goose Bay Airport (CYYR)
Time Latitude Longitude Altitude Speed Heading
2026-05-03 22:24 50.21900 -66.26518 174 ft 0 kts 199°
2026-05-03 22:29 50.21899 -66.26518 174 ft 0 kts 198°
2026-05-03 22:30 50.21861 -66.26559 174 ft 15 kts 226°
2026-05-03 22:30 50.21791 -66.26720 174 ft 21 kts 244°
2026-05-03 22:30 50.21729 -66.26959 174 ft 26 kts 248°
2026-05-03 22:30 50.21667 -66.27202 174 ft 16 kts 258°
2026-05-03 22:31 50.21686 -66.27329 174 ft 10 kts 294°
2026-05-03 22:31 50.21717 -66.27436 174 ft 14 kts 294°
2026-05-03 22:31 50.21767 -66.27601 172 ft 14 kts 311°
2026-05-03 22:31 50.21827 -66.27534 171 ft 14 kts 68°
2026-05-03 22:32 50.21834 -66.27504 171 ft 2 kts 69°
2026-05-03 22:32 50.21903 -66.27225 172 ft 55 kts 69°
2026-05-03 22:32 50.22095 -66.26475 312 ft 85 kts 68°
2026-05-03 22:32 50.22344 -66.25482 404 ft 116 kts 71°
2026-05-03 22:33 50.22655 -66.24143 567 ft 141 kts 71°
2026-05-03 22:33 50.23009 -66.22759 1245 ft 131 kts 72°
2026-05-03 22:33 50.23394 -66.21526 1940 ft 122 kts 68°
2026-05-03 22:33 50.23888 -66.20435 2524 ft 127 kts 48°
2026-05-03 22:34 50.24667 -66.19306 3179 ft 129 kts 51°
2026-05-03 22:34 50.25266 -66.18256 3727 ft 129 kts 52°
2026-05-03 22:34 50.25894 -66.17260 4298 ft 131 kts 48°
2026-05-03 22:34 50.26510 -66.16211 4809 ft 132 kts 53°
2026-05-03 22:35 50.27092 -66.15088 5326 ft 133 kts 55°
2026-05-03 22:35 50.27709 -66.13978 5802 ft 139 kts 52°
2026-05-03 22:35 50.28371 -66.12857 6278 ft 141 kts 51°
2026-05-03 22:35 50.29062 -66.11756 6704 ft 143 kts 49°
2026-05-03 22:36 50.29746 -66.10614 7139 ft 145 kts 52°
2026-05-03 22:36 50.30432 -66.09441 7571 ft 147 kts 53°
2026-05-03 22:36 50.31129 -66.08258 8015 ft 149 kts 51°
2026-05-03 22:36 50.31836 -66.07061 8453 ft 151 kts 52°
2026-05-03 22:37 50.32552 -66.05848 8889 ft 153 kts 52°
2026-05-03 22:37 50.33276 -66.04623 9345 ft 154 kts 51°
2026-05-03 22:37 50.33760 -66.03804 9652 ft 155 kts 51°
2026-05-03 22:37 50.34494 -66.02557 10051 ft 157 kts 51°
2026-05-03 22:38 50.35482 -66.00883 10588 ft 159 kts 52°
2026-05-03 22:38 50.36234 -65.99604 10992 ft 161 kts 52°
2026-05-03 22:38 50.36995 -65.98309 11398 ft 162 kts 52°
2026-05-03 22:38 50.37765 -65.97002 11807 ft 164 kts 52°
2026-05-03 22:39 50.38289 -65.96111 12085 ft 165 kts 52°
2026-05-03 22:39 50.39071 -65.94782 12482 ft 167 kts 52°
2026-05-03 22:39 50.39862 -65.93436 12898 ft 169 kts 53°
2026-05-03 22:39 50.40662 -65.92074 13313 ft 170 kts 53°
2026-05-03 22:40 50.41467 -65.90701 13703 ft 172 kts 53°
2026-05-03 22:40 50.42282 -65.89314 14063 ft 174 kts 53°
2026-05-03 22:40 50.43105 -65.87909 14422 ft 176 kts 53°
2026-05-03 22:40 50.43934 -65.86494 14777 ft 177 kts 53°
2026-05-03 22:41 50.44773 -65.85065 15122 ft 179 kts 53°
2026-05-03 22:41 50.45616 -65.83623 15473 ft 181 kts 53°
2026-05-03 22:41 50.46475 -65.82158 15811 ft 184 kts 53°
2026-05-03 22:41 50.47344 -65.80670 16190 ft 186 kts 53°
2026-05-03 22:42 50.48221 -65.79173 16543 ft 187 kts 53°
2026-05-03 22:42 50.49097 -65.77673 16908 ft 189 kts 54°
2026-05-03 22:42 50.49988 -65.76142 17271 ft 191 kts 54°
2026-05-03 22:42 50.50888 -65.74599 17640 ft 192 kts 54°
2026-05-03 22:43 50.51800 -65.73033 17943 ft 197 kts 54°
2026-05-03 22:43 50.52735 -65.71418 18220 ft 203 kts 54°
2026-05-03 22:43 50.53696 -65.69758 18473 ft 208 kts 54°
2026-05-03 22:43 50.54682 -65.68056 18721 ft 213 kts 54°
2026-05-03 22:44 50.55693 -65.66314 18966 ft 218 kts 54°
2026-05-03 22:44 50.56721 -65.64539 19220 ft 222 kts 54°
2026-05-03 22:44 50.57769 -65.62726 19479 ft 226 kts 54°
2026-05-03 22:44 50.58834 -65.60886 19739 ft 229 kts 54°
2026-05-03 22:45 50.59900 -65.59040 19993 ft 232 kts 54°
2026-05-03 22:45 50.60995 -65.57149 20243 ft 235 kts 54°
2026-05-03 22:45 50.62118 -65.55206 20514 ft 238 kts 54°
2026-05-03 22:45 50.63237 -65.53270 20781 ft 240 kts 55°
2026-05-03 22:46 50.64353 -65.51344 21023 ft 242 kts 55°
2026-05-03 22:46 50.65490 -65.49376 21289 ft 244 kts 55°
2026-05-03 22:46 50.66629 -65.47401 21535 ft 245 kts 55°
2026-05-03 22:46 50.67780 -65.45405 21809 ft 247 kts 56°
2026-05-03 22:47 50.68939 -65.43396 22082 ft 248 kts 56°
2026-05-03 22:47 50.70101 -65.41381 22356 ft 249 kts 56°
2026-05-03 22:47 50.71268 -65.39356 22630 ft 250 kts 56°
2026-05-03 22:47 50.72439 -65.37321 22905 ft 251 kts 56°
2026-05-03 22:48 50.73612 -65.35283 23194 ft 251 kts 56°
2026-05-03 22:48 50.74789 -65.33236 23470 ft 252 kts 56°
2026-05-03 22:48 50.75967 -65.31186 23704 ft 252 kts 57°
2026-05-03 22:48 50.77147 -65.29132 23944 ft 253 kts 57°
2026-05-03 22:49 50.78329 -65.27074 24187 ft 253 kts 57°
2026-05-03 22:49 50.79515 -65.25009 24412 ft 254 kts 57°
2026-05-03 22:49 50.80698 -65.22942 24646 ft 254 kts 57°
2026-05-03 22:49 50.81883 -65.20874 24893 ft 254 kts 58°
2026-05-03 22:50 50.83072 -65.18800 25125 ft 254 kts 58°
2026-05-03 22:50 50.84258 -65.16727 25371 ft 254 kts 58°
2026-05-03 22:50 50.85444 -65.14651 25628 ft 254 kts 58°
2026-05-03 22:50 50.86632 -65.12573 25874 ft 254 kts 59°
2026-05-03 22:51 50.87817 -65.10498 26127 ft 254 kts 59°
2026-05-03 22:51 50.89000 -65.08423 26382 ft 254 kts 59°
2026-05-03 22:51 50.90181 -65.06348 26644 ft 253 kts 59°
2026-05-03 22:51 50.91361 -65.04275 26812 ft 256 kts 60°
2026-05-03 22:52 50.92568 -65.02121 26835 ft 267 kts 60°
2026-05-03 22:52 50.93817 -64.99870 26850 ft 277 kts 59°
2026-05-03 22:52 50.95109 -64.97540 26859 ft 286 kts 59°
2026-05-03 22:52 50.96446 -64.95137 26859 ft 295 kts 59°
2026-05-03 22:53 50.97831 -64.92664 26860 ft 304 kts 58°
2026-05-03 22:53 50.99249 -64.90128 26856 ft 311 kts 58°
2026-05-03 22:53 51.00703 -64.87528 26860 ft 318 kts 58°
2026-05-03 22:53 51.02183 -64.84879 26848 ft 324 kts 58°
2026-05-03 22:54 51.03687 -64.82184 26858 ft 329 kts 58°
2026-05-03 22:54 51.05216 -64.79443 26860 ft 333 kts 58°
2026-05-03 22:54 51.06767 -64.76667 26863 ft 338 kts 58°
2026-05-03 22:54 51.08334 -64.73861 26858 ft 341 kts 58°
2026-05-03 22:55 51.09915 -64.71025 26856 ft 344 kts 58°
2026-05-03 22:55 51.11502 -64.68178 26857 ft 347 kts 58°
2026-05-03 22:55 51.13105 -64.65298 26854 ft 349 kts 58°
2026-05-03 22:55 51.14717 -64.62400 26849 ft 350 kts 58°
2026-05-03 22:56 51.16336 -64.59484 26845 ft 352 kts 58°
2026-05-03 22:56 51.17960 -64.56564 26831 ft 353 kts 57°
2026-05-03 22:56 51.19593 -64.53632 26836 ft 354 kts 57°
2026-05-03 22:56 51.21228 -64.50694 26843 ft 355 kts 57°
2026-05-03 22:57 51.22864 -64.47748 26850 ft 356 kts 57°
2026-05-03 22:57 51.24506 -64.44785 26845 ft 356 kts 57°
2026-05-03 22:57 51.26127 -64.41853 26849 ft 357 kts 57°
2026-05-03 22:57 51.27771 -64.38879 26851 ft 358 kts 58°
2026-05-03 22:58 51.29418 -64.35896 26827 ft 358 kts 57°
2026-05-03 22:58 51.31064 -64.32914 26848 ft 357 kts 57°
2026-05-03 22:58 51.32708 -64.29932 26856 ft 358 kts 57°
2026-05-03 22:58 51.34355 -64.26940 26854 ft 358 kts 57°
2026-05-03 22:59 51.35999 -64.23948 26844 ft 358 kts 57°
2026-05-03 22:59 51.37649 -64.20949 26847 ft 359 kts 57°
2026-05-03 22:59 51.39297 -64.17954 26846 ft 359 kts 57°
2026-05-03 22:59 51.40940 -64.14958 26844 ft 359 kts 57°
2026-05-03 23:00 51.42592 -64.11942 26844 ft 360 kts 57°
2026-05-03 23:00 51.44237 -64.08932 26849 ft 360 kts 58°
2026-05-03 23:00 51.45891 -64.05905 26847 ft 360 kts 57°
2026-05-03 23:00 51.47540 -64.02883 26853 ft 360 kts 58°
2026-05-03 23:01 51.49181 -63.99849 26855 ft 360 kts 58°
2026-05-03 23:01 51.50793 -63.96774 26851 ft 359 kts 59°
2026-05-03 23:01 51.52387 -63.93692 26854 ft 360 kts 59°
2026-05-03 23:01 51.53985 -63.90597 26853 ft 360 kts 59°
2026-05-03 23:02 51.55584 -63.87503 26851 ft 360 kts 59°
2026-05-03 23:02 51.57190 -63.84401 26856 ft 361 kts 59°
2026-05-03 23:02 51.58797 -63.81297 26854 ft 361 kts 59°
2026-05-03 23:02 51.60404 -63.78189 26861 ft 362 kts 59°
2026-05-03 23:03 51.62015 -63.75070 26864 ft 362 kts 59°
2026-05-03 23:03 51.63628 -63.71945 26855 ft 363 kts 59°
2026-05-03 23:03 51.65237 -63.68827 26854 ft 363 kts 59°
2026-05-03 23:03 51.66844 -63.65708 26855 ft 363 kts 59°
2026-05-03 23:04 51.68433 -63.62623 26850 ft 363 kts 59°
2026-05-03 23:04 51.70064 -63.59453 26855 ft 363 kts 59°
2026-05-03 23:04 51.71673 -63.56321 26855 ft 363 kts 59°
2026-05-03 23:04 51.73285 -63.53184 26843 ft 363 kts 59°
2026-05-03 23:05 51.74874 -63.50084 26848 ft 363 kts 59°
2026-05-03 23:05 51.76484 -63.46943 26853 ft 363 kts 59°
2026-05-03 23:05 51.78095 -63.43791 26853 ft 364 kts 59°
2026-05-03 23:05 51.79703 -63.40641 26849 ft 364 kts 59°
2026-05-03 23:06 51.81313 -63.37484 26856 ft 364 kts 59°
2026-05-03 23:06 51.82920 -63.34328 26853 ft 364 kts 59°
2026-05-03 23:06 51.84528 -63.31165 26853 ft 364 kts 59°
2026-05-03 23:06 51.86133 -63.28004 26856 ft 364 kts 59°
2026-05-03 23:07 51.87739 -63.24840 26856 ft 364 kts 59°
2026-05-03 23:07 51.89342 -63.21674 26831 ft 364 kts 59°
2026-05-03 23:07 51.90946 -63.18508 26838 ft 363 kts 59°
2026-05-03 23:07 51.92549 -63.15345 26847 ft 364 kts 59°
2026-05-03 23:08 51.94151 -63.12176 26851 ft 364 kts 59°
2026-05-03 23:08 51.95756 -63.08992 26855 ft 364 kts 59°
2026-05-03 23:08 51.97357 -63.05812 26858 ft 364 kts 59°
2026-05-03 23:08 51.98959 -63.02627 26857 ft 365 kts 59°
2026-05-03 23:09 52.00559 -62.99436 26859 ft 365 kts 59°
2026-05-03 23:09 52.02162 -62.96238 26860 ft 365 kts 59°
2026-05-03 23:09 52.03763 -62.93041 26863 ft 365 kts 59°
2026-05-03 23:09 52.05363 -62.89839 26864 ft 365 kts 60°
2026-05-03 23:10 52.06966 -62.86631 26860 ft 365 kts 60°
2026-05-03 23:10 52.08567 -62.83426 26851 ft 365 kts 59°
2026-05-03 23:10 52.10172 -62.80209 26862 ft 366 kts 59°
2026-05-03 23:10 52.11773 -62.76998 26861 ft 366 kts 59°
2026-05-03 23:11 52.13375 -62.73776 26864 ft 366 kts 59°
2026-05-03 23:11 52.14974 -62.70555 26859 ft 366 kts 59°
2026-05-03 23:11 52.16571 -62.67332 26855 ft 366 kts 59°
2026-05-03 23:11 52.18169 -62.64105 26864 ft 366 kts 59°
2026-05-03 23:12 52.19770 -62.60869 26859 ft 366 kts 59°
2026-05-03 23:12 52.21369 -62.57630 26855 ft 366 kts 59°
2026-05-03 23:12 52.22966 -62.54395 26860 ft 366 kts 59°
2026-05-03 23:12 52.24562 -62.51157 26852 ft 366 kts 60°
2026-05-03 23:13 52.26155 -62.47915 26861 ft 366 kts 59°
2026-05-03 23:13 52.27755 -62.44666 26854 ft 367 kts 59°
2026-05-03 23:13 52.29352 -62.41418 26850 ft 367 kts 59°
2026-05-03 23:13 52.30948 -62.38165 26851 ft 367 kts 59°
2026-05-03 23:14 52.32544 -62.34904 26848 ft 367 kts 59°
2026-05-03 23:14 52.34138 -62.31643 26854 ft 367 kts 59°
2026-05-03 23:14 52.35734 -62.28372 26854 ft 368 kts 59°
2026-05-03 23:14 52.37329 -62.25100 26852 ft 368 kts 59°
2026-05-03 23:15 52.38922 -62.21829 26858 ft 368 kts 59°
2026-05-03 23:15 52.40509 -62.18567 26845 ft 368 kts 59°
2026-05-03 23:15 52.42104 -62.15280 26693 ft 373 kts 60°
2026-05-03 23:15 52.43720 -62.11895 26311 ft 379 kts 60°
2026-05-03 23:16 52.45340 -62.08488 25930 ft 379 kts 59°
2026-05-03 23:16 52.46964 -62.05091 25514 ft 378 kts 59°
2026-05-03 23:16 52.48587 -62.01706 25145 ft 377 kts 59°
2026-05-03 23:16 52.50208 -61.98323 24779 ft 376 kts 59°
2026-05-03 23:17 52.51820 -61.94955 24418 ft 375 kts 59°
2026-05-03 23:17 52.53430 -61.91591 24060 ft 374 kts 59°
2026-05-03 23:17 52.55029 -61.88240 23708 ft 372 kts 59°
2026-05-03 23:17 52.56623 -61.84889 23344 ft 371 kts 59°
2026-05-03 23:18 52.58210 -61.81548 22917 ft 371 kts 59°
2026-05-03 23:18 52.59789 -61.78199 22503 ft 370 kts 59°
2026-05-03 23:18 52.61350 -61.74845 22096 ft 369 kts 60°
2026-05-03 23:18 52.62889 -61.71477 21692 ft 368 kts 60°
2026-05-03 23:19 52.64406 -61.68088 21294 ft 367 kts 61°
2026-05-03 23:19 52.65896 -61.64687 20899 ft 366 kts 62°
2026-05-03 23:19 52.67355 -61.61267 20508 ft 360 kts 63°
2026-05-03 23:19 52.68714 -61.57923 20113 ft 344 kts 63°
2026-05-03 23:20 52.70034 -61.54712 19726 ft 334 kts 62°
2026-05-03 23:20 52.71313 -61.51580 19324 ft 325 kts 65°
2026-05-03 23:20 52.72083 -61.49482 18915 ft 323 kts 68°
2026-05-03 23:20 52.73176 -61.46237 18223 ft 323 kts 70°
2026-05-03 23:21 52.74154 -61.42926 17521 ft 319 kts 70°
2026-05-03 23:21 52.75170 -61.39718 16893 ft 315 kts 69°
2026-05-03 23:21 52.76145 -61.36541 16479 ft 305 kts 70°
2026-05-03 23:21 52.77071 -61.33419 15984 ft 300 kts 71°
2026-05-03 23:22 52.78825 -61.27215 14673 ft 299 kts 69°
2026-05-03 23:22 52.79763 -61.24124 13704 ft 304 kts 68°
2026-05-03 23:22 52.80829 -61.21203 12748 ft 283 kts 59°
2026-05-03 23:23 52.82249 -61.19037 11460 ft 273 kts 40°
2026-05-03 23:23 52.83810 -61.17392 10297 ft 261 kts 34°
2026-05-03 23:23 52.85357 -61.15994 9881 ft 257 kts 30°
2026-05-03 23:23 52.86987 -61.14594 9496 ft 270 kts 31°
2026-05-03 23:24 52.88639 -61.13054 9097 ft 275 kts 33°
2026-05-03 23:24 52.90282 -61.11408 8697 ft 277 kts 34°
2026-05-03 23:24 52.91911 -61.09703 8295 ft 276 kts 35°
2026-05-03 23:24 52.93525 -61.07986 7910 ft 275 kts 35°
2026-05-03 23:25 52.95130 -61.06275 7527 ft 273 kts 36°
2026-05-03 23:25 52.96721 -61.04583 7147 ft 271 kts 35°
2026-05-03 23:25 52.98280 -61.02925 6767 ft 269 kts 34°
2026-05-03 23:25 52.99843 -61.01280 6398 ft 266 kts 34°
2026-05-03 23:26 53.01406 -60.99646 6003 ft 264 kts 34°
2026-05-03 23:26 53.02950 -60.98018 5618 ft 262 kts 34°
2026-05-03 23:26 53.04479 -60.96395 5227 ft 260 kts 34°
2026-05-03 23:26 53.05980 -60.94794 4840 ft 255 kts 34°
2026-05-03 23:27 53.07482 -60.93212 4451 ft 255 kts 34°
2026-05-03 23:27 53.08973 -60.91635 4048 ft 253 kts 34°
2026-05-03 23:27 53.10448 -60.90065 3704 ft 249 kts 35°
2026-05-03 23:27 53.11864 -60.88469 3498 ft 243 kts 41°
2026-05-03 23:28 53.12967 -60.86411 3294 ft 237 kts 60°
2026-05-03 23:28 53.13844 -60.84107 3084 ft 235 kts 57°
2026-05-03 23:28 53.14795 -60.81911 2883 ft 233 kts 56°
2026-05-03 23:28 53.15739 -60.79748 2829 ft 228 kts 56°
2026-05-03 23:29 53.16651 -60.77624 2793 ft 223 kts 56°
2026-05-03 23:29 53.17542 -60.75532 2786 ft 220 kts 57°
2026-05-03 23:29 53.18424 -60.73460 2795 ft 219 kts 56°
2026-05-03 23:29 53.19302 -60.71388 2794 ft 218 kts 57°
2026-05-03 23:30 53.20172 -60.69318 2808 ft 218 kts 57°
2026-05-03 23:30 53.21040 -60.67243 2798 ft 218 kts 57°
2026-05-03 23:30 53.21910 -60.65175 2802 ft 218 kts 57°
2026-05-03 23:30 53.22777 -60.63107 2796 ft 213 kts 57°
2026-05-03 23:31 53.23558 -60.61189 2649 ft 191 kts 58°
2026-05-03 23:31 53.24309 -60.59408 2372 ft 187 kts 56°
2026-05-03 23:31 53.24987 -60.57807 2121 ft 144 kts 57°
2026-05-03 23:31 53.25482 -60.56510 1949 ft 136 kts 54°
2026-05-03 23:32 53.26087 -60.55323 1770 ft 123 kts 52°
2026-05-03 23:32 53.26551 -60.54211 1590 ft 112 kts 60°
2026-05-03 23:32 53.26935 -60.53106 1423 ft 109 kts 59°
2026-05-03 23:32 53.27341 -60.52055 1272 ft 107 kts 56°
2026-05-03 23:33 53.27777 -60.51040 1124 ft 107 kts 53°
2026-05-03 23:33 53.28219 -60.50028 959 ft 109 kts 53°
2026-05-03 23:33 53.28650 -60.48997 805 ft 108 kts 55°
2026-05-03 23:33 53.29073 -60.47968 670 ft 107 kts 53°
2026-05-03 23:34 53.29498 -60.46945 534 ft 107 kts 52°
2026-05-03 23:34 53.29919 -60.45930 381 ft 107 kts 56°
2026-05-03 23:34 53.30350 -60.44902 209 ft 108 kts 53°
2026-05-03 23:34 53.30729 -60.43983 156 ft 73 kts 52°
2026-05-03 23:35 53.30845 -60.43642 154 ft 15 kts 101°
2026-05-03 23:35 53.30751 -60.43493 155 ft 22 kts 122°
2026-05-03 23:35 53.30815 -60.43267 154 ft 23 kts 55°
2026-05-03 23:35 53.30905 -60.43051 154 ft 23 kts 55°
2026-05-03 23:36 53.30995 -60.42836 154 ft 23 kts 55°
2026-05-03 23:36 53.31091 -60.42630 154 ft 22 kts 56°
2026-05-03 23:36 53.31180 -60.42416 154 ft 23 kts 53°
2026-05-03 23:36 53.31269 -60.42200 154 ft 23 kts 56°
2026-05-03 23:37 53.31350 -60.41979 154 ft 21 kts 88°
2026-05-03 23:37 53.31289 -60.41802 153 ft 6 kts 153°
2026-05-03 23:37 53.31260 -60.41767 153 ft 0 kts 143°